Tiempo atmosférico en la estación meteorológica de Balsareny, Barcelona (352 m.)

Fecha
DESCASC
Temp. máxima en grados centígrados (hora)
DESCASC
Temp. mínima en grados centígrados (hora)
DESCASC
Temp. media en grados centígrados
DESCASC
Racha de viento máxima en m/sg (hora)
DESCASC
Velocidad máxima media en intervalos de 10 minutos(hora)
DESCASC
Precipitaciones diarias en mm
DESCASC
Precipitaciones de 00:00 a 06:00 en mm
DESCASC
Precipitaciones de 06:00 a 12:00 en mm
DESCASC
Precipitaciones de 12:00 a 18:00 en mm
DESCASC
Precipitaciones de 18:00 a 24:00 en mm
DESCASC
24-09-2017 29 (17:00) 13.2 (08:20) 21.1 6.94 (19:30) 5.28 (19:30) 0 0 0 0 0
23-09-2017 25.7 (16:10) 10.8 (06:50) 18.3 9.17 (17:20) 5.28 (16:30) 0.2 0 0 0.2 0
22-09-2017 24.2 (14:00) 12.9 (07:20) 18.6 12.5 (14:50) 6.67 (15:00) 9.6 0 0 9.6 0
21-09-2017 26.4 (16:50) 6.6 (00:00) 16.5 7.22 (17:00) 4.72 (17:40) 0 0 0 0 0
20-09-2017 24 (16:30) 6.2 (00:00) 15.1 7.5 (19:10) 5.56 (19:10) 0 0 0 0 0
19-09-2017 23.3 (16:50) 9.3 (00:00) 16.3 8.33 (14:00) 5 (13:50) 0 0 0 0 0
18-09-2017 22.9 (17:30) 8.7 (00:00) 15.8 11.11 (18:00) 6.11 (20:20) 0 0 0 0 0
17-09-2017 22 (18:00) 4.1 (00:00) 13 10.56 (13:50) 6.11 (14:10) 0 0 0 0 0
16-09-2017 18.2 (17:50) 8.1 (00:00) 13.2 10 (20:50) 6.39 (20:50) 0.2 0 0 0 0.2
15-09-2017 18.8 (00:00) 9.8 (00:00) 14.3 6.67 (01:30) 3.61 (01:30) 44.2 24.4 6.6 11.8 1.4
14-09-2017 30.3 (15:20) 12.8 (00:00) 21.5 10.56 (18:00) 7.22 (18:50) 0 0 0 0 0
13-09-2017 30 (17:50) 12.9 (00:00) 21.4 12.5 (14:50) 5.83 (19:30) 0 0 0 0 0
12-09-2017 25.3 (16:50) 12.3 (00:00) 18.8 10 (20:10) 6.67 (20:00) 0 0 0 0 0
11-09-2017 29 (16:10) 9.4 (00:00) 19.2 15 (16:40) 9.72 (16:40) 0 0 0 0 0
10-09-2017 25.8 (16:30) 8.4 (00:00) 17.1 14.72 (14:40) 6.67 (14:20) 0 0 0 0 0
09-09-2017 20.8 (12:50) 12 (00:00) 16.4 10 (14:50) 6.11 (14:50) 1.2 0 0 1.2 0
08-09-2017 26.3 (16:40) 11.7 (00:00) 19 9.17 (17:20) 6.11 (17:50) 0 0 0 0 0
07-09-2017 26.5 (16:30) 13.6 (00:00) 20.1 8.61 (14:50) 4.17 (20:10) 0 0 0 0 0
06-09-2017 29.6 (16:10) 16.9 (00:00) 23.3 10.56 (17:20) 7.5 (18:30) 9 0 0 0 9
05-09-2017 31.7 (15:40) 13 (00:00) 22.4 8.33 (17:50) 5.56 (17:50) 0 0 0 0 0
04-09-2017 28.1 (13:50) 17 (00:00) 22.6 11.67 (15:50) 7.5 (15:50) 0.8 0.2 0.4 0.2 0
03-09-2017 28.3 (16:50) 11 (00:00) 19.6 9.17 (18:00) 5.83 (18:00) 0 0 0 0 0
02-09-2017 27.3 (16:50) 8.8 (00:00) 18 8.61 (15:30) 4.72 (18:20) 0 0 0 0 0
01-09-2017 26.2 (17:20) 13.4 (00:00) 19.8 10.83 (15:10) 6.39 (16:50) 0 0 0 0 0
31-08-2017 23.8 (17:50) 17.6 (00:00) 20.7 9.72 (19:00) 5.83 (18:50) 12.6 0 11.8 0.8 0
30-08-2017 28.3 (14:40) 17 (00:00) 22.6 10 (15:00) 6.11 (17:40) 1.6 0.4 1.2 0 0
29-08-2017 31.8 (13:40) 18.1 (00:00) 24.9 10 (18:20) 7.22 (18:00) 0 0 0 0 0
28-08-2017 37.5 (15:30) 16.4 (00:00) 26.9 13.06 (17:50) 8.61 (17:50) 0 0 0 0 0
27-08-2017 35.7 (16:40) 19.2 (00:00) 27.5 10 (18:20) 7.22 (18:20) 0 0 0 0 0
26-08-2017 34.6 (16:10) 16.4 (00:00) 25.5 8.33 (18:10) 5.83 (19:10) 0 0 0 0 0

Gráficas

Temp. máximas Temp. mínimas Temp. medias Precipitaciones Rachas de viento máximas Velocidades máximas media en intervalos de 10 minutos

Datos horarios

Fecha y hora oficial Temperatura (ºC) Velocidad del viento (km/h) Dirección del viento Racha (km/h) Dirección de racha Precipitación (mm) Presión (hPa) Tendencia (hPa) Humedad (%)
2017-09-24 23:00:00 18.8 4 Noroeste 6 Noroeste 0 -- -- 89
2017-09-24 22:00:00 20.4 4 Sur 9 Sur 0 -- -- 81
2017-09-24 21:00:00 21.6 5 Sur 18 Sur 0 -- -- 77
2017-09-24 20:00:00 23.1 14 Sur 25 Sudoeste 0 -- -- 72
2017-09-24 19:00:00 25.5 13 Sur 23 Sur 0 -- -- 62
2017-09-24 18:00:00 28 15 Sur 24 Sur 0 -- -- 47
2017-09-24 17:00:00 29 12 Sudoeste 22 Sudoeste 0 -- -- 34
2017-09-24 16:00:00 28.1 5 Sur 22 Sur 0 -- -- 45
2017-09-24 15:00:00 27.1 7 Sudeste 18 Sudeste 0 -- -- 49
2017-09-24 14:00:00 25.6 9 Sudeste 17 Sudeste 0 -- -- 54
2017-09-24 13:00:00 24 5 Sudeste 12 Sudeste 0 -- -- 60
2017-09-24 12:00:00 22 3 Este 9 Nordeste 0 -- -- 65
2017-09-24 11:00:00 19.7 5 Nordeste 9 Nordeste 0 -- -- 72
2017-09-24 10:00:00 16.2 3 Nordeste 7 Norte 0 -- -- 83
2017-09-24 09:00:00 13.6 5 Norte 8 Nordeste 0 -- -- 95
2017-09-24 08:00:00 13.4 4 Norte 9 Norte 0 -- -- 95
2017-09-24 07:00:00 13.7 5 Norte 8 Norte 0 -- -- 97
2017-09-24 06:00:00 15 5 Noroeste 7 Noroeste 0 -- -- 96
2017-09-24 05:00:00 16.2 5 Norte 8 Norte 0 -- -- 93
2017-09-24 04:00:00 16.8 0 Calma 4 Sudeste 0 -- -- 93
2017-09-24 03:00:00 16.9 0 Calma 3 Nordeste 0 -- -- 93
2017-09-24 02:00:00 16.8 3 Norte 5 Noroeste 0 -- -- 94
2017-09-24 01:00:00 16.2 2 Nordeste 6 Noroeste 0 -- -- 95
2017-09-24 00:00:00 15.9 4 Norte 6 Norte 0 -- -- 94
2017-09-23 23:00:00 17.2 6 Norte 9 Norte 0 -- -- 92
2017-09-23 22:00:00 18.7 2 Norte 8 Sur 0 -- -- 85
2017-09-23 21:00:00 19.8 4 Sur 21 Sur 0 -- -- 81
2017-09-23 20:00:00 20.8 15 Sur 24 Sur 0 -- -- 76
2017-09-23 19:00:00 22.6 19 Sur 25 Sur 0 -- -- 68
2017-09-23 18:00:00 24 16 Sur 33 Sudoeste 0 -- -- 61
2017-09-23 17:00:00 25.5 19 Sudoeste 31 Sudoeste 0 -- -- 43
2017-09-23 16:00:00 25.6 11 Sudoeste 29 Sudoeste 0 -- -- 44
2017-09-23 15:00:00 24.7 15 Sur 32 Sudoeste 0 -- -- 54
2017-09-23 14:00:00 22.8 12 Sudeste 21 Sudeste 0 -- -- 63
2017-09-23 13:00:00 21.7 7 Sur 13 Sur 0.2 -- -- 67
2017-09-23 12:00:00 18.7 4 Este 8 Sur 0 -- -- 70
2017-09-23 11:00:00 15.8 2 Este 5 Este 0 -- -- 86
2017-09-23 10:00:00 13 4 Norte 7 Noroeste 0 -- -- 99
2017-09-23 09:00:00 11.6 2 Norte 5 Norte 0 -- -- 99
2017-09-23 08:00:00 11.1 0 Calma 7 Sudoeste 0 -- -- 99
2017-09-23 07:00:00 11 2 Oeste 6 Norte 0 -- -- 99
2017-09-23 06:00:00 11.4 5 Norte 8 Noroeste 0 -- -- 99
2017-09-23 05:00:00 11.5 4 Norte 8 Noroeste 0 -- -- 99
2017-09-23 04:00:00 12.1 6 Noroeste 10 Noroeste 0 -- -- 99
2017-09-23 03:00:00 12.1 2 Norte 9 Norte 0 -- -- 98
2017-09-23 02:00:00 12.7 4 Noroeste 6 Noroeste 0 -- -- 99
2017-09-23 01:00:00 13.1 3 Noroeste 9 Noroeste 0 -- -- 98
2017-09-23 00:00:00 13.3 5 Norte 8 Noroeste 0 -- -- 98
2017-09-22 23:00:00 13.5 3 Norte 5 Norte 0 -- -- 98
2017-09-22 22:00:00 14.4 2 Oeste 8 Noroeste 0 -- -- 98
2017-09-22 21:00:00 14.8 5 Norte 8 Noroeste 0 -- -- 96
2017-09-22 20:00:00 15.6 2 Oeste 5 Norte 0 -- -- 94
2017-09-22 19:00:00 16 0 Calma 6 Este 0 -- -- 91
2017-09-22 18:00:00 16.1 0 Calma 10 Sudeste 0 -- -- 89
2017-09-22 17:00:00 15.4 6 Sur 26 Nordeste 0.6 -- -- 95
2017-09-22 16:00:00 14.9 17 Nordeste 38 Oeste 3 -- -- 94
2017-09-22 15:00:00 16.1 24 Noroeste 45 Oeste 6 -- -- 84
2017-09-22 14:00:00 24.2 10 Sur 16 Sur 0 -- -- 57
2017-09-22 13:00:00 22.9 5 Este 12 Sudeste 0 -- -- 64
2017-09-22 12:00:00 20.4 3 Sur 8 Sur 0 -- -- 76
2017-09-22 11:00:00 17.5 2 Nordeste 4 Nordeste 0 -- -- 87
2017-09-22 10:00:00 15.5 0 Calma 6 Norte 0 -- -- 94
2017-09-22 09:00:00 14.3 3 Noroeste 7 Noroeste 0 -- -- 97
2017-09-22 08:00:00 13.3 5 Norte 6 Norte 0 -- -- 98
2017-09-22 07:00:00 13 3 Norte 5 Noroeste 0 -- -- 98
2017-09-22 06:00:00 13.8 3 Norte 5 Noroeste 0 -- -- 97
2017-09-22 05:00:00 14.2 2 Norte 4 Norte 0 -- -- 94
2017-09-22 04:00:00 15.7 2 Oeste 8 Noroeste 0 -- -- 95
2017-09-22 03:00:00 16.1 0 Calma 6 Noroeste 0 -- -- 93
2017-09-22 02:00:00 16.4 4 Noroeste 5 Norte 0 -- -- 92
2017-09-22 01:00:00 16.4 4 Norte 9 Norte 0 -- -- 91
2017-09-22 00:00:00 15.8 5 Norte 8 Norte 0 -- -- 91
2017-09-21 23:00:00 17.9 4 Noroeste 6 Noroeste 0 -- -- 87
2017-09-21 22:00:00 19.3 5 Sur 11 Sur 0 -- -- 83
2017-09-21 21:00:00 20.4 8 Sur 19 Sur 0 -- -- 77
2017-09-21 20:00:00 21.8 12 Sur 22 Sudoeste 0 -- -- 71
2017-09-21 19:00:00 23.6 16 Sur 22 Sur 0 -- -- 62
2017-09-21 18:00:00 25.5 15 Sur 25 Sur 0 -- -- 54
2017-09-21 17:00:00 26.3 15 Sur 26 Sur 0 -- -- 49
2017-09-21 16:00:00 25.9 12 Sur 23 Sur 0 -- -- 50
2017-09-21 15:00:00 25 10 Sur 21 Sur 0 -- -- 52
2017-09-21 14:00:00 23.9 13 Sur 22 Sur 0 -- -- 55
2017-09-21 13:00:00 22.6 8 Sur 13 Sudeste 0 -- -- 60
2017-09-21 12:00:00 20.2 4 Sudeste 9 Este 0 -- -- 64
2017-09-21 11:00:00 16.6 3 Norte 6 Este 0 -- -- 67
2017-09-21 10:00:00 13.1 3 Este 6 Norte 0 -- -- 78
2017-09-21 09:00:00 8.9 4 Norte 6 Norte 0 -- -- 97
2017-09-21 08:00:00 6.8 0 Calma 6 Norte 0 -- -- 97
2017-09-21 07:00:00 7.1 3 Norte 8 Noroeste 0 -- -- 97
2017-09-21 06:00:00 7.7 0 Calma 4 Norte 0 -- -- 96
2017-09-21 05:00:00 7.6 3 Noroeste 7 Norte 0 -- -- 95
2017-09-21 04:00:00 8.7 3 Noroeste 8 Noroeste 0 -- -- 93
2017-09-21 03:00:00 10 2 Norte 10 Norte 0 -- -- 89
2017-09-21 02:00:00 10.9 9 Norte 11 Noroeste 0 -- -- 86
2017-09-21 01:00:00 11.4 6 Noroeste 10 Noroeste 0 -- -- 83
2017-09-21 00:00:00 12.9 8 Noroeste 12 Noroeste 0 -- -- 77
2017-09-20 23:00:00 14 8 Norte 9 Norte 0 -- -- 75
2017-09-20 22:00:00 16.3 0 Calma 14 Sur 0 -- -- 70
2017-09-20 21:00:00 17.8 10 Sur 22 Sur 0 -- -- 67
2017-09-20 20:00:00 19.3 18 Sur 27 Sudoeste 0 -- -- 62
2017-09-20 19:00:00 21 17 Sudoeste 27 Sudoeste 0 -- -- 56
2017-09-20 18:00:00 23.4 15 Sur 22 Sur 0 -- -- 46
2017-09-20 17:00:00 23.7 11 Sudeste 18 Sudeste 0 -- -- 41
2017-09-20 16:00:00 23.5 9 Sudeste 25 Sur 0 -- -- 44
2017-09-20 15:00:00 23 13 Sur 22 Sur 0 -- -- 46
2017-09-20 14:00:00 21.9 12 Sur 22 Sur 0 -- -- 45
2017-09-20 13:00:00 20.7 12 Sur 21 Sur 0 -- -- 57
2017-09-20 12:00:00 18.9 5 Sudeste 9 Sur 0 -- -- 55
2017-09-20 11:00:00 15.9 4 Este 8 Nordeste 0 -- -- 54
2017-09-20 10:00:00 11.5 4 Norte 6 Nordeste 0 -- -- 66
2017-09-20 09:00:00 8.3 2 Norte 8 Noroeste 0 -- -- 78
2017-09-20 08:00:00 6.4 2 Norte 10 Noroeste 0 -- -- 91
2017-09-20 07:00:00 7.6 8 Noroeste 14 Noroeste 0 -- -- 80
2017-09-20 06:00:00 7 5 Noroeste 9 Norte 0 -- -- 94
2017-09-20 05:00:00 8.5 5 Norte 14 Norte 0 -- -- 85
2017-09-20 04:00:00 9.2 3 Norte 11 Norte 0 -- -- 85
2017-09-20 03:00:00 9.7 5 Norte 7 Norte 0 -- -- 95
2017-09-20 02:00:00 9.7 3 Norte 9 Norte 0 -- -- 93
2017-09-20 01:00:00 10.7 8 Noroeste 10 Norte 0 -- -- 92
2017-09-20 00:00:00 11.6 6 Norte 10 Noroeste 0 -- -- 89
2017-09-19 23:00:00 13.3 8 Noroeste 11 Noroeste 0 -- -- 82
2017-09-19 22:00:00 16.4 3 Sudeste 10 Sur 0 -- -- 73
2017-09-19 21:00:00 17.6 8 Sudeste 14 Sudeste 0 -- -- 68
2017-09-19 20:00:00 19.4 15 Sur 23 Sur 0 -- -- 59
2017-09-19 19:00:00 21.6 7 Sudoeste 22 Sudoeste 0 -- -- 35
2017-09-19 18:00:00 23 12 Sudoeste 25 Sudoeste 0 -- -- 32
2017-09-19 17:00:00 23.3 16 Sudoeste 28 Sur 0 -- -- 32
2017-09-19 16:00:00 22.8 11 Sur 28 Sudoeste 0 -- -- 31
2017-09-19 15:00:00 21.9 9 Sudoeste 29 Sudoeste 0 -- -- 34
2017-09-19 14:00:00 20.7 16 Sudoeste 30 Sudoeste 0 -- -- 40
2017-09-19 13:00:00 20.1 8 Sudeste 18 Sur 0 -- -- 45
2017-09-19 12:00:00 17.7 10 Sudeste 17 Sudeste 0 -- -- 62
2017-09-19 11:00:00 16.3 4 Este 9 Este 0 -- -- 67
2017-09-19 10:00:00 12.6 4 Nordeste 9 Nordeste 0 -- -- 86
2017-09-19 09:00:00 9.8 4 Norte 6 Norte 0 -- -- 98
2017-09-19 08:00:00 9.3 5 Norte 7 Norte 0 -- -- 98
2017-09-19 07:00:00 10.3 5 Noroeste 13 Noroeste 0 -- -- 98
2017-09-19 06:00:00 10.8 11 Noroeste 14 Noroeste 0 -- -- 98
2017-09-19 05:00:00 11.4 4 Norte 8 Norte 0 -- -- 96
2017-09-19 04:00:00 12.3 6 Norte 10 Norte 0 -- -- 93
2017-09-19 03:00:00 13.5 2 Noroeste 8 Noroeste 0 -- -- 91
2017-09-19 02:00:00 13.7 4 Norte 8 Norte 0 -- -- 89
2017-09-19 01:00:00 14 5 Norte 8 Norte 0 -- -- 89
2017-09-19 00:00:00 14.3 5 Noroeste 8 Noroeste 0 -- -- 87
2017-09-18 23:00:00 14.7 5 Norte 9 Oeste 0 -- -- 86
2017-09-18 22:00:00 16.1 6 Sur 22 Sur 0 -- -- 80
2017-09-18 21:00:00 16.5 19 Sur 32 Sur 0 -- -- 78
2017-09-18 20:00:00 19.7 14 Sur 28 Sudoeste 0 -- -- 62
2017-09-18 19:00:00 21.3 14 Sudoeste 36 Sudoeste 0 -- -- 47
2017-09-18 18:00:00 22.4 17 Sudoeste 40 Sudoeste 0 -- -- 44
2017-09-18 17:00:00 22.3 18 Sudoeste 39 Sudoeste 0 -- -- 43
2017-09-18 16:00:00 22 15 Sudoeste 35 Sudoeste 0 -- -- 44
2017-09-18 15:00:00 20.4 11 Sudoeste 24 Sudeste 0 -- -- 51
2017-09-18 14:00:00 19.2 16 Sur 26 Sudeste 0 -- -- 68
2017-09-18 13:00:00 16.8 8 Sur 13 Sur 0 -- -- 77
2017-09-18 12:00:00 14.1 4 Sur 9 Sur 0 -- -- 83
2017-09-18 11:00:00 13.1 4 Sur 10 Sudoeste 0 -- -- 85
2017-09-18 10:00:00 12.7 2 Norte 6 Norte 0 -- -- 79
2017-09-18 09:00:00 12.1 5 Norte 8 Noroeste 0 -- -- 80
2017-09-18 08:00:00 11.4 2 Nordeste 9 Norte 0 -- -- 82
2017-09-18 07:00:00 10.8 3 Norte 9 Norte 0 -- -- 83
2017-09-18 06:00:00 9.9 3 Noroeste 10 Norte 0 -- -- 86
2017-09-18 05:00:00 8.7 6 Norte 8 Noroeste 0 -- -- 88
2017-09-18 04:00:00 10.2 2 Noroeste 9 Noroeste 0 -- -- 82
2017-09-18 03:00:00 10.8 2 Oeste 9 Noroeste 0 -- -- 80
2017-09-18 02:00:00 11.6 5 Noroeste 9 Noroeste 0 -- -- 75
2017-09-18 01:00:00 12.9 2 Norte 10 Norte 0 -- -- 71
2017-09-18 00:00:00 13.5 6 Norte 9 Norte 0 -- -- 66
2017-09-17 23:00:00 15.1 7 Noroeste 9 Noroeste 0 -- -- 55
2017-09-17 22:00:00 15.8 6 Norte 11 Oeste 0 -- -- 53
2017-09-17 21:00:00 17.8 4 Oeste 19 Sudoeste 0 -- -- 43
2017-09-17 20:00:00 19.1 13 Sudoeste 23 Sudoeste 0 -- -- 39
2017-09-17 19:00:00 20.3 12 Sudoeste 32 Sudoeste 0 -- -- 37
2017-09-17 18:00:00 22 12 Sudoeste 38 Sudoeste 0 -- -- 34
2017-09-17 17:00:00 21.2 17 Sudoeste 35 Sudoeste 0 -- -- 35
2017-09-17 16:00:00 21.3 18 Sudoeste 35 Sudoeste 0 -- -- 35
2017-09-17 15:00:00 20.2 12 Oeste 36 Sudoeste 0 -- -- 39
2017-09-17 14:00:00 19.9 14 Sudoeste 38 Sudoeste 0 -- -- 42
2017-09-17 13:00:00 18.7 17 Sudoeste 30 Sudoeste 0 -- -- 46
2017-09-17 12:00:00 16.6 8 Sur 22 Sudeste 0 -- -- 58
2017-09-17 11:00:00 13.5 5 Sudeste 9 Sudeste 0 -- -- 69
2017-09-17 10:00:00 9.3 3 Norte 6 Norte 0 -- -- 86
2017-09-17 09:00:00 6.4 0 Calma 10 Norte 0 -- -- 99
2017-09-17 08:00:00 4.1 4 Norte 8 Noroeste 0 -- -- 98
2017-09-17 07:00:00 4.5 2 Oeste 8 Noroeste 0 -- -- 97
2017-09-17 06:00:00 4.6 4 Norte 9 Noroeste 0 -- -- 97
2017-09-17 05:00:00 5.6 4 Noroeste 10 Oeste 0 -- -- 97
2017-09-17 04:00:00 5.8 2 Norte 11 Noroeste 0 -- -- 95
2017-09-17 03:00:00 6.1 3 Nordeste 6 Norte 0 -- -- 93
2017-09-17 02:00:00 7.3 2 Noroeste 10 Noroeste 0 -- -- 90
2017-09-17 01:00:00 7.2 6 Norte 10 Noroeste 0 -- -- 90
2017-09-17 00:00:00 8.8 8 Noroeste 11 Noroeste 0 -- -- 84
2017-09-16 23:00:00 10.4 7 Noroeste 12 Oeste 0 -- -- 76
2017-09-16 22:00:00 12.2 2 Norte 17 Nordeste 0 -- -- 64
2017-09-16 21:00:00 13.6 14 Norte 36 Noroeste 0.2 -- -- 58
2017-09-16 20:00:00 15.9 2 Sudoeste 19 Sudoeste 0 -- -- 58
2017-09-16 19:00:00 17 8 Sudoeste 25 Sudoeste 0 -- -- 51
2017-09-16 18:00:00 18.1 12 Sudoeste 28 Noroeste 0 -- -- 54
2017-09-16 17:00:00 17.9 15 Sudoeste 27 Sudoeste 0 -- -- 55
2017-09-16 16:00:00 16.8 9 Sur 23 Sudoeste 0 -- -- 65
2017-09-16 15:00:00 15.9 8 Sudoeste 21 Sudoeste 0 -- -- 68
2017-09-16 14:00:00 14.5 4 Sudeste 15 Sur 0 -- -- 73
2017-09-16 13:00:00 13.2 6 Sur 12 Sur 0 -- -- 81
2017-09-16 12:00:00 12.1 4 Sudeste 9 Este 0 -- -- 87
2017-09-16 11:00:00 10.7 2 Sur 6 Noroeste 0 -- -- 97
2017-09-16 10:00:00 9.1 5 Norte 8 Norte 0 -- -- 99
2017-09-16 09:00:00 9.1 6 Norte 10 Norte 0 -- -- 100
2017-09-16 08:00:00 8.1 5 Norte 7 Norte 0 -- -- 100
2017-09-16 07:00:00 8.6 5 Norte 8 Norte 0 -- -- 100
2017-09-16 06:00:00 9.1 3 Norte 7 Norte 0 -- -- 100
2017-09-16 05:00:00 9.9 5 Norte 7 Norte 0 -- -- 100
2017-09-16 04:00:00 9.9 3 Norte 4 Norte 0 -- -- 100
2017-09-16 03:00:00 9.9 3 Oeste 8 Norte 0 -- -- 100
2017-09-16 02:00:00 10.3 4 Norte 6 Norte 0 -- -- 100
2017-09-16 01:00:00 10.3 2 Sudeste 6 Sudoeste 0 -- -- 100
2017-09-16 00:00:00 9.8 2 Este 10 Noroeste 0 -- -- 99
2017-09-15 23:00:00 10.3 6 Noroeste 9 Sur 0 -- -- 99
2017-09-15 22:00:00 10.8 6 Sur 12 Sur 0 -- -- 99
2017-09-15 21:00:00 11.1 7 Sur 9 Sudoeste 0 -- -- 99
2017-09-15 20:00:00 11.3 2 Sudoeste 7 Nordeste 0 -- -- 98
2017-09-15 19:00:00 11.3 3 Este 12 Oeste 1.4 -- -- 98
2017-09-15 18:00:00 11 4 Sudoeste 18 Oeste 5 -- -- 97
2017-09-15 17:00:00 12.3 4 Noroeste 11 Norte 1.2 -- -- 98
2017-09-15 16:00:00 12.2 6 Noroeste 10 Noroeste 1.8 -- -- 98
2017-09-15 15:00:00 12.2 3 Oeste 14 Sudoeste 1 -- -- 97
2017-09-15 14:00:00 12.3 5 Sur 9 Sur 1.4 -- -- 99
2017-09-15 13:00:00 11.8 5 Sur 11 Sur 1.4 -- -- 98
2017-09-15 12:00:00 11.8 5 Sudeste 8 Este 0.2 -- -- 99
2017-09-15 11:00:00 11.4 5 Sur 9 Sudeste 0.8 -- -- 99
2017-09-15 10:00:00 10.8 5 Noroeste 9 Noroeste 0.4 -- -- 98
2017-09-15 09:00:00 10.8 5 Sudeste 13 Sur 1.8 -- -- 99
2017-09-15 08:00:00 10.9 4 Sudeste 8 Sudoeste 2.8 -- -- 98
2017-09-15 07:00:00 11 3 Sudoeste 8 Sudoeste 0.6 -- -- 98
2017-09-15 06:00:00 11.4 5 Nordeste 8 Este 1.2 -- -- 98
2017-09-15 05:00:00 11.4 3 Este 8 Este 8.8 -- -- 97
2017-09-15 04:00:00 11.9 0 Calma 9 Sudoeste 5.8 -- -- 97
2017-09-15 03:00:00 12.2 5 Este 14 Sudoeste 8.2 -- -- 94
2017-09-15 02:00:00 15.9 8 Sudoeste 24 Oeste 0.4 -- -- 74
2017-09-15 01:00:00 18.2 10 Oeste 19 Oeste 0 -- -- 59
2017-09-15 00:00:00 18.8 5 Sudoeste 17 Sudoeste 0 -- -- 78
2017-09-14 23:00:00 18.7 10 Sudoeste 24 Sudoeste 0 -- -- 79
2017-09-14 22:00:00 18.5 14 Sudoeste 27 Sur 0 -- -- 83
2017-09-14 21:00:00 19 19 Sur 27 Sur 0 -- -- 80
2017-09-14 20:00:00 20.3 17 Sur 34 Sudoeste 0 -- -- 74
2017-09-14 19:00:00 21.9 23 Sur 38 Sur 0 -- -- 70
2017-09-14 18:00:00 24.9 22 Sur 38 Sur 0 -- -- 63
2017-09-14 17:00:00 28.4 19 Sur 35 Sudoeste 0 -- -- 56
2017-09-14 16:00:00 29.7 21 Sudoeste 36 Sudoeste 0 -- -- 40
2017-09-14 15:00:00 29.1 16 Sur 35 Sudoeste 0 -- -- 43
2017-09-14 14:00:00 28.3 12 Sudeste 21 Sudeste 0 -- -- 50
2017-09-14 13:00:00 26.1 12 Sur 17 Sudeste 0 -- -- 57
2017-09-14 12:00:00 23.7 6 Sudeste 11 Sudeste 0 -- -- 67
2017-09-14 11:00:00 20.5 3 Nordeste 8 Norte 0 -- -- 70
2017-09-14 10:00:00 17.3 4 Norte 8 Norte 0 -- -- 76
2017-09-14 09:00:00 15.5 3 Norte 12 Norte 0 -- -- 83
2017-09-14 08:00:00 14.6 3 Noroeste 6 Nordeste 0 -- -- 88
2017-09-14 07:00:00 14.1 3 Norte 8 Noroeste 0 -- -- 90
2017-09-14 06:00:00 13.2 5 Norte 8 Noroeste 0 -- -- 95
2017-09-14 05:00:00 13.1 2 Norte 10 Norte 0 -- -- 90
2017-09-14 04:00:00 13.5 3 Noroeste 7 Noroeste 0 -- -- 91
2017-09-14 03:00:00 14.9 4 Norte 8 Norte 0 -- -- 90
2017-09-14 02:00:00 15.3 3 Noroeste 9 Noroeste 0 -- -- 86
2017-09-14 01:00:00 17.6 7 Noroeste 10 Norte 0 -- -- 79
2017-09-14 00:00:00 19.3 0 Calma 15 Sur 0 -- -- 76
2017-09-13 23:00:00 20.1 10 Sudoeste 23 Sur 0 -- -- 73
2017-09-13 22:00:00 21.3 15 Sur 21 Sur 0 -- -- 67
2017-09-13 21:00:00 23 14 Sur 28 Sur 0 -- -- 61
2017-09-13 20:00:00 24.3 16 Sur 28 Sur 0 -- -- 57
2017-09-13 19:00:00 26.4 19 Sur 29 Sur 0 -- -- 51
2017-09-13 18:00:00 29.9 9 Oeste 24 Sudoeste 0 -- -- 31
2017-09-13 17:00:00 29.3 13 Sudoeste 29 Oeste 0 -- -- 32
2017-09-13 16:00:00 29.5 8 Sudoeste 35 Sudoeste 0 -- -- 32
2017-09-13 15:00:00 28.2 9 Sudeste 45 Sur 0 -- -- 35
2017-09-13 14:00:00 26.3 6 Sur 19 Sur 0 -- -- 41
2017-09-13 13:00:00 24.9 7 Sudeste 14 Sudeste 0 -- -- 45
2017-09-13 12:00:00 22.4 4 Este 9 Este 0 -- -- 55
2017-09-13 11:00:00 20.5 3 Sur 7 Sur 0 -- -- 65
2017-09-13 10:00:00 18.1 4 Nordeste 8 Norte 0 -- -- 73
2017-09-13 09:00:00 14 5 Norte 9 Norte 0 -- -- 91
2017-09-13 08:00:00 13.8 3 Norte 9 Norte 0 -- -- 92
2017-09-13 07:00:00 13.4 3 Norte 5 Norte 0 -- -- 94
2017-09-13 06:00:00 13.4 5 Noroeste 8 Norte 0 -- -- 96
2017-09-13 05:00:00 12.9 4 Norte 8 Norte 0 -- -- 95
2017-09-13 04:00:00 13.5 4 Norte 6 Norte 0 -- -- 95
2017-09-13 03:00:00 13.6 4 Noroeste 6 Noroeste 0 -- -- 94
2017-09-13 02:00:00 13.6 0 Calma 8 Noroeste 0 -- -- 93
2017-09-13 01:00:00 14.4 4 Norte 11 Norte 0 -- -- 89
2017-09-13 00:00:00 16.3 7 Noroeste 10 Sur 0 -- -- 89
2017-09-12 23:00:00 17.7 11 Sur 18 Sudoeste 0 -- -- 84
2017-09-12 22:00:00 18.4 15 Sur 26 Sur 0 -- -- 80
2017-09-12 21:00:00 19.4 16 Sur 36 Sur 0 -- -- 75
2017-09-12 20:00:00 20.9 24 Sur 34 Sur 0 -- -- 66
2017-09-12 19:00:00 24.2 12 Sudoeste 28 Sudoeste 0 -- -- 39
2017-09-12 18:00:00 24.6 16 Sudoeste 30 Sudoeste 0 -- -- 38
2017-09-12 17:00:00 24.9 11 Noroeste 29 Oeste 0 -- -- 37
2017-09-12 16:00:00 24 8 Sudoeste 21 Sudoeste 0 -- -- 42
2017-09-12 15:00:00 24.2 8 Sudoeste 23 Sudoeste 0 -- -- 42
2017-09-12 14:00:00 22.1 9 Noroeste 26 Noroeste 0 -- -- 47
2017-09-12 13:00:00 21.1 5 Norte 18 Este 0 -- -- 52
2017-09-12 12:00:00 19.5 6 Sur 18 Noroeste 0 -- -- 57
2017-09-12 11:00:00 17.4 9 Noroeste 21 Noroeste 0 -- -- 64
2017-09-12 10:00:00 16.6 8 Oeste 21 Noroeste 0 -- -- 68
2017-09-12 09:00:00 13.8 5 Norte 9 Noroeste 0 -- -- 86
2017-09-12 08:00:00 12.6 3 Sudoeste 6 Sudoeste 0 -- -- 91
2017-09-12 07:00:00 12.6 2 Sur 10 Noroeste 0 -- -- 90
2017-09-12 06:00:00 12.8 5 Norte 9 Oeste 0 -- -- 91
2017-09-12 05:00:00 13.7 6 Norte 9 Norte 0 -- -- 86
2017-09-12 04:00:00 14.3 4 Sur 7 Sur 0 -- -- 89
2017-09-12 03:00:00 14.4 3 Noroeste 8 Norte 0 -- -- 90
2017-09-12 02:00:00 14.9 4 Norte 11 Noroeste 0 -- -- 87
2017-09-12 01:00:00 17.2 4 Noroeste 10 Norte 0 -- -- 80
2017-09-12 00:00:00 19 2 Este 24 Sudoeste 0 -- -- 75
2017-09-11 23:00:00 20.1 13 Sudoeste 22 Sur 0 -- -- 71
2017-09-11 22:00:00 21.4 21 Sudoeste 29 Sur 0 -- -- 61
2017-09-11 21:00:00 24.2 11 Sudoeste 45 Sudoeste 0 -- -- 39
2017-09-11 20:00:00 25.1 18 Sudoeste 46 Sudoeste 0 -- -- 38
2017-09-11 19:00:00 26.8 15 Sudoeste 41 Sudoeste 0 -- -- 35
2017-09-11 18:00:00 28 14 Sudoeste 50 Sudoeste 0 -- -- 37
2017-09-11 17:00:00 28.4 22 Sudoeste 54 Sudoeste 0 -- -- 38
2017-09-11 16:00:00 28.8 21 Sudoeste 40 Sudoeste 0 -- -- 38
2017-09-11 15:00:00 26.7 8 Oeste 34 Sudoeste 0 -- -- 46
2017-09-11 14:00:00 26.3 13 Sudoeste 31 Sudoeste 0 -- -- 45
2017-09-11 13:00:00 24.1 6 Este 14 Sudeste 0 -- -- 47
2017-09-11 12:00:00 21.2 5 Este 13 Sudeste 0 -- -- 52
2017-09-11 11:00:00 19.3 4 Nordeste 10 Nordeste 0 -- -- 55
2017-09-11 10:00:00 16 4 Norte 9 Nordeste 0 -- -- 65
2017-09-11 09:00:00 11.7 5 Norte 8 Norte 0 -- -- 82
2017-09-11 08:00:00 9.6 3 Noroeste 10 Norte 0 -- -- 89
2017-09-11 07:00:00 10.2 7 Norte 10 Norte 0 -- -- 87
2017-09-11 06:00:00 10.8 2 Norte 8 Noroeste 0 -- -- 84
2017-09-11 05:00:00 11.3 3 Norte 11 Noroeste 0 -- -- 82
2017-09-11 04:00:00 12.1 5 Norte 9 Norte 0 -- -- 77
2017-09-11 03:00:00 12 8 Norte 12 Noroeste 0 -- -- 76
2017-09-11 02:00:00 12.6 6 Noroeste 13 Noroeste 0 -- -- 73
2017-09-11 01:00:00 13 4 Norte 8 Sur 0 -- -- 72
2017-09-11 00:00:00 13.7 3 Nordeste 8 Norte 0 -- -- 67
2017-09-10 23:00:00 14.5 4 Sudoeste 8 Norte 0 -- -- 66
2017-09-10 22:00:00 16.8 3 Nordeste 8 Sudoeste 0 -- -- 57
2017-09-10 21:00:00 19.9 7 Sur 13 Sur 0 -- -- 44
2017-09-10 20:00:00 21.9 7 Norte 20 Este 0 -- -- 32
2017-09-10 19:00:00 24.5 8 Nordeste 32 Noroeste 0 -- -- 27
2017-09-10 18:00:00 25.6 10 Norte 25 Noroeste 0 -- -- 26
2017-09-10 17:00:00 24.8 14 Noroeste 36 Oeste 0 -- -- 26
2017-09-10 16:00:00 25 18 Oeste 41 Sudoeste 0 -- -- 24
2017-09-10 15:00:00 23.8 14 Sudoeste 53 Oeste 0 -- -- 31
2017-09-10 14:00:00 22.1 23 Sudoeste 38 Sudoeste 0 -- -- 34
2017-09-10 13:00:00 21.3 10 Sudoeste 25 Sur 0 -- -- 38
2017-09-10 12:00:00 19.7 6 Sudeste 15 Sudeste 0 -- -- 51
2017-09-10 11:00:00 16.2 4 Sudeste 9 Sur 0 -- -- 66
2017-09-10 10:00:00 14 5 Este 9 Este 0 -- -- 78
2017-09-10 09:00:00 10.6 3 Norte 6 Norte 0 -- -- 90
2017-09-10 08:00:00 8.4 4 Noroeste 9 Oeste 0 -- -- 92
2017-09-10 07:00:00 9.8 5 Oeste 8 Oeste 0 -- -- 89
2017-09-10 06:00:00 10.5 0 Calma 6 Norte 0 -- -- 91
2017-09-10 05:00:00 10.4 3 Noroeste 10 Sur 0 -- -- 92
2017-09-10 04:00:00 11.3 4 Sudoeste 7 Sudoeste 0 -- -- 89
2017-09-10 03:00:00 12.3 0 Calma 10 Oeste 0 -- -- 91
2017-09-10 02:00:00 13.4 2 Sudoeste 10 Sur 0 -- -- 93
2017-09-10 01:00:00 14.5 4 Sudoeste 10 Oeste 0 -- -- 89
2017-09-10 00:00:00 15 3 Sudeste 16 Sur 0 -- -- 90
2017-09-09 23:00:00 15.6 12 Sur 19 Sur 0 -- -- 88
2017-09-09 22:00:00 16 6 Sur 11 Sur 0 -- -- 85
2017-09-09 21:00:00 16.2 4 Sur 8 Sur 0 -- -- 84
2017-09-09 20:00:00 16.6 6 Sur 10 Sur 0 -- -- 85
2017-09-09 19:00:00 17.2 6 Sur 15 Sur 0 -- -- 83
2017-09-09 18:00:00 17.1 12 Sur 19 Sur 0 -- -- 86
2017-09-09 17:00:00 16.7 10 Sudoeste 22 Sudoeste 0 -- -- 84
2017-09-09 16:00:00 16.3 9 Sudoeste 22 Sudoeste 0.4 -- -- 89
2017-09-09 15:00:00 16.3 13 Noroeste 36 Oeste 0.8 -- -- 87
2017-09-09 14:00:00 17.8 6 Noroeste 21 Noroeste 0 -- -- 81
2017-09-09 13:00:00 20.8 8 Noroeste 19 Noroeste 0 -- -- 73
2017-09-09 12:00:00 20.1 2 Nordeste 8 Norte 0 -- -- 75
2017-09-09 11:00:00 18.9 4 Norte 7 Sudeste 0 -- -- 77
2017-09-09 10:00:00 16.6 2 Noroeste 6 Norte 0 -- -- 87
2017-09-09 09:00:00 15.3 5 Noroeste 7 Noroeste 0 -- -- 91
2017-09-09 08:00:00 14.5 3 Norte 6 Norte 0 -- -- 94
2017-09-09 07:00:00 14.3 3 Norte 9 Noroeste 0 -- -- 94
2017-09-09 06:00:00 13.9 4 Norte 12 Noroeste 0 -- -- 95
2017-09-09 05:00:00 12.9 3 Norte 10 Noroeste 0 -- -- 97
2017-09-09 04:00:00 13 5 Norte 12 Norte 0 -- -- 97
2017-09-09 03:00:00 12 6 Norte 9 Norte 0 -- -- 95
2017-09-09 02:00:00 13.7 0 Calma 9 Noroeste 0 -- -- 95
2017-09-09 01:00:00 13.8 4 Norte 10 Noroeste 0 -- -- 93
2017-09-09 00:00:00 15.7 4 Noroeste 10 Norte 0 -- -- 89
2017-09-08 23:00:00 17.4 2 Sudoeste 9 Oeste 0 -- -- 85
2017-09-08 22:00:00 18.9 3 Sur 11 Sur 0 -- -- 81
2017-09-08 21:00:00 20 8 Sur 20 Sur 0 -- -- 76
2017-09-08 20:00:00 21.5 17 Sur 25 Sudoeste 0 -- -- 66
2017-09-08 19:00:00 23.1 19 Sur 30 Sur 0 -- -- 59
2017-09-08 18:00:00 24.7 20 Sur 33 Sudoeste 0 -- -- 56
2017-09-08 17:00:00 25.8 20 Sur 30 Sur 0 -- -- 52
2017-09-08 16:00:00 26.2 17 Sur 27 Sur 0 -- -- 49
2017-09-08 15:00:00 25.8 17 Sur 27 Sur 0 -- -- 48
2017-09-08 14:00:00 24.5 18 Sur 29 Sur 0 -- -- 54
2017-09-08 13:00:00 23.1 14 Sur 24 Sur 0 -- -- 59
2017-09-08 12:00:00 21 5 Este 11 Sudeste 0 -- -- 62
2017-09-08 11:00:00 18.7 5 Nordeste 8 Norte 0 -- -- 72
2017-09-08 10:00:00 15.9 4 Nordeste 10 Noroeste 0 -- -- 87
2017-09-08 09:00:00 12.9 5 Norte 8 Noroeste 0 -- -- 98
2017-09-08 08:00:00 11.7 0 Calma 6 Sudeste 0 -- -- 98
2017-09-08 07:00:00 11.7 2 Norte 7 Noroeste 0 -- -- 97
2017-09-08 06:00:00 12.5 0 Calma 8 Noroeste 0 -- -- 97
2017-09-08 05:00:00 12.5 4 Norte 10 Noroeste 0 -- -- 95
2017-09-08 04:00:00 14.1 8 Norte 10 Norte 0 -- -- 96
2017-09-08 03:00:00 14.4 5 Norte 10 Noroeste 0 -- -- 93
2017-09-08 02:00:00 15.2 4 Noroeste 7 Norte 0 -- -- 94
2017-09-08 01:00:00 16.1 5 Norte 10 Norte 0 -- -- 93
2017-09-08 00:00:00 17.6 3 Norte 6 Norte 0 -- -- 87
2017-09-07 23:00:00 19.5 5 Sur 18 Sudoeste 0 -- -- 82
2017-09-07 22:00:00 20.1 9 Sudoeste 18 Sur 0 -- -- 82
2017-09-07 21:00:00 21.5 12 Sur 22 Sudoeste 0 -- -- 74
2017-09-07 20:00:00 23.4 10 Sur 18 Oeste 0 -- -- 54
2017-09-07 19:00:00 24.7 7 Oeste 22 Oeste 0 -- -- 47
2017-09-07 18:00:00 25.8 10 Oeste 23 Oeste 0 -- -- 43
2017-09-07 17:00:00 25.8 13 Oeste 25 Sudoeste 0 -- -- 44
2017-09-07 16:00:00 25.4 12 Noroeste 24 Noroeste 0 -- -- 45
2017-09-07 15:00:00 25.4 7 Sudoeste 31 Sudoeste 0 -- -- 46
2017-09-07 14:00:00 23.3 7 Sudeste 18 Sudeste 0 -- -- 51
2017-09-07 13:00:00 22.2 8 Sur 20 Sudoeste 0 -- -- 52
2017-09-07 12:00:00 19.6 6 Norte 14 Norte 0 -- -- 61
2017-09-07 11:00:00 18.5 6 Sudoeste 24 Noroeste 0 -- -- 66
2017-09-07 10:00:00 16.6 3 Sudoeste 16 Sudoeste 0 -- -- 71
2017-09-07 09:00:00 14.8 5 Sudeste 11 Sudeste 0 -- -- 84
2017-09-07 08:00:00 13.6 3 Norte 12 Sudoeste 0 -- -- 89
2017-09-07 07:00:00 14.1 5 Oeste 12 Oeste 0 -- -- 85
2017-09-07 06:00:00 14.7 3 Sur 13 Sudeste 0 -- -- 90
2017-09-07 05:00:00 15.1 5 Nordeste 12 Norte 0 -- -- 93
2017-09-07 04:00:00 16.8 3 Oeste 8 Noroeste 0 -- -- 91
2017-09-07 03:00:00 18.3 3 Sudoeste 8 Noroeste 0 -- -- 98
2017-09-07 02:00:00 18.4 3 Norte 6 Noroeste 0 -- -- 98
2017-09-07 01:00:00 18.8 0 Calma 4 Sudoeste 0 -- -- 97
2017-09-07 00:00:00 18.6 2 Nordeste 6 Noroeste 0 -- -- 97
2017-09-06 23:00:00 18.3 5 Norte 15 Norte 0.4 -- -- 97
2017-09-06 22:00:00 18.3 10 Norte 27 Norte 8.6 -- -- 95
2017-09-06 21:00:00 23.3 13 Sur 31 Sudeste 0 -- -- 75
2017-09-06 20:00:00 24 18 Sur 33 Sur 0 -- -- 73
2017-09-06 19:00:00 25.6 23 Sur 37 Sur 0 -- -- 67
2017-09-06 18:00:00 26.8 25 Sur 38 Sur 0 -- -- 62
2017-09-06 17:00:00 28.8 22 Sur 37 Sur 0 -- -- 54
2017-09-06 16:00:00 29.1 22 Sur 34 Sur 0 -- -- 49
2017-09-06 15:00:00 28.4 13 Sur 28 Sur 0 -- -- 50
2017-09-06 14:00:00 27.4 15 Sur 25 Sur 0 -- -- 56
2017-09-06 13:00:00 26.2 14 Sur 20 Sur 0 -- -- 62
2017-09-06 12:00:00 24.5 9 Sur 15 Sur 0 -- -- 68
2017-09-06 11:00:00 22.6 5 Sudeste 9 Sudeste 0 -- -- 78
2017-09-06 10:00:00 20.5 4 Sudeste 7 Sur 0 -- -- 85
2017-09-06 09:00:00 18.4 4 Norte 7 Norte 0 -- -- 89
2017-09-06 08:00:00 17 0 Calma 6 Noroeste 0 -- -- 93
2017-09-06 07:00:00 17.6 0 Calma 5 Noroeste 0 -- -- 91
2017-09-06 06:00:00 17.8 2 Norte 6 Noroeste 0 -- -- 89
2017-09-06 05:00:00 17.9 4 Norte 5 Norte 0 -- -- 88
2017-09-06 04:00:00 18.1 3 Norte 5 Norte 0 -- -- 89
2017-09-06 03:00:00 18.7 6 Noroeste 8 Norte 0 -- -- 89
2017-09-06 02:00:00 19.3 4 Noroeste 8 Noroeste 0 -- -- 85
2017-09-06 01:00:00 20.6 3 Norte 6 Oeste 0 -- -- 81
2017-09-06 00:00:00 22.3 5 Sudoeste 8 Sudoeste 0 -- -- 75
2017-09-05 23:00:00 23.5 3 Sur 15 Sudoeste 0 -- -- 70
2017-09-05 22:00:00 24.5 4 Sudeste 14 Sur 0 -- -- 67
2017-09-05 21:00:00 25.6 13 Sur 25 Sur 0 -- -- 63
2017-09-05 20:00:00 27.4 15 Sur 30 Sur 0 -- -- 55
2017-09-05 19:00:00 29.7 16 Sur 27 Sudoeste 0 -- -- 46
2017-09-05 18:00:00 30.9 16 Sur 30 Sur 0 -- -- 43
2017-09-05 17:00:00 30.4 7 Sur 17 Sudeste 0 -- -- 38
2017-09-05 16:00:00 30.7 5 Sudeste 24 Sudeste 0 -- -- 38
2017-09-05 15:00:00 31.3 16 Sur 27 Sur 0 -- -- 38
2017-09-05 14:00:00 29.5 9 Sudeste 22 Sur 0 -- -- 42
2017-09-05 13:00:00 27.7 11 Sur 19 Sudeste 0 -- -- 47
2017-09-05 12:00:00 25.1 10 Sudeste 15 Sur 0 -- -- 58
2017-09-05 11:00:00 22.7 5 Sur 8 Sudeste 0 -- -- 71
2017-09-05 10:00:00 19.9 3 Este 6 Nordeste 0.2 -- -- 78
2017-09-05 09:00:00 15.9 3 Nordeste 6 Norte 0 -- -- 95
2017-09-05 08:00:00 13.2 2 Norte 5 Noroeste 0 -- -- 97
2017-09-05 07:00:00 13 3 Norte 5 Noroeste 0 -- -- 95
2017-09-05 06:00:00 14.2 0 Calma 6 Noroeste 0 -- -- 96
2017-09-05 05:00:00 14.3 2 Noroeste 5 Norte 0 -- -- 95
2017-09-05 04:00:00 15.2 3 Noroeste 7 Noroeste 0 -- -- 94
2017-09-05 03:00:00 15.7 0 Calma 6 Noroeste 0 -- -- 92
2017-09-05 02:00:00 16.7 0 Calma 6 Noroeste 0 -- -- 91
2017-09-05 01:00:00 17.4 0 Calma 7 Noroeste 0 -- -- 87
2017-09-05 00:00:00 18.7 5 Noroeste 8 Noroeste 0 -- -- 84
2017-09-04 23:00:00 19.6 2 Este 6 Noroeste 0 -- -- 81
2017-09-04 22:00:00 20.8 2 Sudoeste 9 Sudoeste 0 -- -- 77
2017-09-04 21:00:00 21.6 9 Sur 14 Sur 0 -- -- 74
2017-09-04 20:00:00 23.1 8 Sur 13 Sudeste 0 -- -- 71
2017-09-04 19:00:00 24.6 6 Sur 13 Sudeste 0 -- -- 68
2017-09-04 18:00:00 23.6 3 Sur 5 Sur 0 -- -- 72
2017-09-04 17:00:00 21.7 6 Norte 21 Sur 0 -- -- 75
2017-09-04 16:00:00 19.9 16 Sur 42 Sur 0.2 -- -- 82
2017-09-04 15:00:00 25.8 20 Sudoeste 32 Sudoeste 0 -- -- 53
2017-09-04 14:00:00 27 13 Sur 23 Sur 0 -- -- 51
2017-09-04 13:00:00 26.7 8 Sudeste 18 Sur 0 -- -- 52
2017-09-04 12:00:00 24.8 5 Sudeste 13 Sudeste 0 -- -- 55
2017-09-04 11:00:00 23 3 Sudoeste 8 Sudeste 0 -- -- 68
2017-09-04 10:00:00 20.6 2 Norte 8 Nordeste 0 -- -- 82
2017-09-04 09:00:00 17.8 4 Norte 14 Oeste 0 -- -- 95
2017-09-04 08:00:00 17.2 5 Sudoeste 10 Noroeste 0.4 -- -- 93
2017-09-04 07:00:00 17.1 3 Norte 6 Norte 0 -- -- 93
2017-09-04 06:00:00 17.6 3 Norte 5 Sur 0 -- -- 92
2017-09-04 05:00:00 17.9 4 Sur 14 Noroeste 0 -- -- 91
2017-09-04 04:00:00 17.6 5 Noroeste 8 Noroeste 0.2 -- -- 90
2017-09-04 03:00:00 18 3 Noroeste 7 Norte 0 -- -- 87
2017-09-04 02:00:00 18.4 0 Calma 6 Sudoeste 0 -- -- 86
2017-09-04 01:00:00 18.8 4 Sudeste 9 Oeste 0 -- -- 84
2017-09-04 00:00:00 19.2 4 Noroeste 6 Norte 0 -- -- 82
2017-09-03 23:00:00 20 3 Sur 10 Sur 0 -- -- 79
2017-09-03 22:00:00 20.7 8 Sur 17 Sur 0 -- -- 76
2017-09-03 21:00:00 21.9 11 Sur 20 Sur 0 -- -- 71
2017-09-03 20:00:00 23.8 13 Sur 32 Sur 0 -- -- 61
2017-09-03 19:00:00 27.2 14 Sudoeste 27 Sudoeste 0 -- -- 26
2017-09-03 18:00:00 28 21 Sudoeste 33 Sudoeste 0 -- -- 26
2017-09-03 17:00:00 28 10 Oeste 29 Sudoeste 0 -- -- 23
2017-09-03 16:00:00 27.1 12 Sur 24 Sur 0 -- -- 30
2017-09-03 15:00:00 25.2 13 Sur 23 Sur 0 -- -- 37
2017-09-03 14:00:00 24 9 Sudeste 17 Este 0 -- -- 45
2017-09-03 13:00:00 21.6 10 Sur 20 Sudoeste 0 -- -- 55
2017-09-03 12:00:00 21.2 6 Sudeste 16 Sudeste 0 -- -- 57
2017-09-03 11:00:00 19.8 6 Sur 11 Sur 0 -- -- 63
2017-09-03 10:00:00 16.5 4 Sudeste 8 Sudeste 0 -- -- 71
2017-09-03 09:00:00 13 0 Calma 4 Norte 0 -- -- 87
2017-09-03 08:00:00 11.7 0 Calma 5 Noroeste 0 -- -- 91
2017-09-03 07:00:00 11.2 0 Calma 4 Sur 0 -- -- 91
2017-09-03 06:00:00 11.9 2 Oeste 6 Norte 0 -- -- 89
2017-09-03 05:00:00 12.6 5 Norte 8 Norte 0 -- -- 84
2017-09-03 04:00:00 12.4 5 Norte 9 Norte 0 -- -- 88
2017-09-03 03:00:00 13.3 6 Norte 11 Norte 0 -- -- 83
2017-09-03 02:00:00 13.1 4 Norte 6 Norte 0 -- -- 85
2017-09-03 01:00:00 14.6 6 Norte 11 Noroeste 0 -- -- 77
2017-09-03 00:00:00 15.8 8 Norte 11 Noroeste 0 -- -- 73
2017-09-02 23:00:00 17.5 8 Noroeste 10 Noroeste 0 -- -- 67
2017-09-02 22:00:00 19.3 5 Sur 18 Sudeste 0 -- -- 61
2017-09-02 21:00:00 20.5 9 Sur 23 Sudeste 0 -- -- 57
2017-09-02 20:00:00 23.3 12 Sur 21 Sudeste 0 -- -- 48
2017-09-02 19:00:00 26.4 8 Oeste 28 Sudoeste 0 -- -- 28
2017-09-02 18:00:00 27.1 11 Oeste 30 Sudoeste 0 -- -- 26
2017-09-02 17:00:00 27.2 13 Sudoeste 28 Sudoeste 0 -- -- 25
2017-09-02 16:00:00 26.5 11 Noroeste 31 Noroeste 0 -- -- 26
2017-09-02 15:00:00 26.3 13 Sudoeste 29 Sudoeste 0 -- -- 25
2017-09-02 14:00:00 25.2 10 Sudoeste 26 Sudoeste 0 -- -- 30
2017-09-02 13:00:00 23 9 Noroeste 22 Sudoeste 0 -- -- 36
2017-09-02 12:00:00 21.7 8 Sur 17 Sudoeste 0 -- -- 38
2017-09-02 11:00:00 19 7 Sur 17 Sudoeste 0 -- -- 51
2017-09-02 10:00:00 15.8 5 Este 9 Sudeste 0 -- -- 66
2017-09-02 09:00:00 11.8 2 Este 6 Sur 0 -- -- 86
2017-09-02 08:00:00 9.3 3 Nordeste 12 Norte 0 -- -- 92
2017-09-02 07:00:00 9.2 5 Oeste 10 Norte 0 -- -- 91
2017-09-02 06:00:00 10.5 2 Noroeste 8 Norte 0 -- -- 91
2017-09-02 05:00:00 11 3 Noroeste 9 Noroeste 0 -- -- 90
2017-09-02 04:00:00 12 5 Norte 8 Noroeste 0 -- -- 86
2017-09-02 03:00:00 13.5 5 Norte 9 Norte 0 -- -- 84
2017-09-02 02:00:00 15 6 Norte 10 Noroeste 0 -- -- 75
2017-09-02 01:00:00 17.7 3 Sudoeste 16 Sur 0 -- -- 70
2017-09-02 00:00:00 18.6 12 Sudoeste 26 Sur 0 -- -- 82
2017-09-01 23:00:00 18.9 15 Sudoeste 26 Sudoeste 0 -- -- 80
2017-09-01 22:00:00 19.6 17 Sur 28 Sur 0 -- -- 76
2017-09-01 21:00:00 21 16 Sur 31 Sur 0 -- -- 67
2017-09-01 20:00:00 23.7 13 Sudoeste 27 Sudoeste 0 -- -- 34
2017-09-01 19:00:00 25.3 17 Sudoeste 29 Sudoeste 0 -- -- 30
2017-09-01 18:00:00 25.8 12 Sudoeste 32 Sudoeste 0 -- -- 30
2017-09-01 17:00:00 25.6 18 Sudoeste 37 Sudoeste 0 -- -- 30
2017-09-01 16:00:00 25.4 17 Sudoeste 39 Sudoeste 0 -- -- 33
2017-09-01 15:00:00 25.1 12 Sudoeste 28 Sudeste 0 -- -- 37
2017-09-01 14:00:00 23 18 Sur 33 Sur 0 -- -- 46
2017-09-01 13:00:00 21.3 13 Sur 22 Sur 0 -- -- 52
2017-09-01 12:00:00 19.6 14 Sur 21 Sur 0 -- -- 61
2017-09-01 11:00:00 18.6 6 Sudoeste 24 Sudoeste 0 -- -- 63
2017-09-01 10:00:00 16.9 4 Oeste 13 Sur 0 -- -- 73
2017-09-01 09:00:00 15.2 3 Este 7 Sudeste 0 -- -- 98
2017-09-01 08:00:00 14.2 3 Nordeste 7 Nordeste 0 -- -- 99
2017-09-01 07:00:00 14.1 2 Norte 4 Norte 0 -- -- 99
2017-09-01 06:00:00 13.7 3 Noroeste 10 Noroeste 0 -- -- 98
2017-09-01 05:00:00 13.7 5 Norte 6 Norte 0 -- -- 97
2017-09-01 04:00:00 14.4 2 Sudeste 6 Sudoeste 0 -- -- 95
2017-09-01 03:00:00 14.9 4 Norte 9 Noroeste 0 -- -- 94
2017-09-01 02:00:00 16.4 4 Norte 7 Norte 0 -- -- 91
2017-09-01 01:00:00 17.3 3 Norte 7 Norte 0 -- -- 88
2017-09-01 00:00:00 18.2 2 Norte 10 Nordeste 0 -- -- 85
2017-08-31 23:00:00 18.8 6 Nordeste 12 Este 0 -- -- 80
2017-08-31 22:00:00 18.9 6 Norte 12 Nordeste 0 -- -- 79
2017-08-31 21:00:00 19.2 5 Sudeste 15 Sur 0 -- -- 82
2017-08-31 20:00:00 19.6 13 Sur 29 Sur 0 -- -- 83
2017-08-31 19:00:00 21 20 Sur 35 Sur 0 -- -- 77
2017-08-31 18:00:00 23.8 19 Sur 30 Sudoeste 0 -- -- 66
2017-08-31 17:00:00 23 13 Sur 23 Sur 0 -- -- 70
2017-08-31 16:00:00 23.1 13 Sur 26 Sur 0 -- -- 72
2017-08-31 15:00:00 21.7 8 Sur 23 Sudeste 0.8 -- -- 85
2017-08-31 14:00:00 22.1 10 Sur 17 Sudeste 0 -- -- 78
2017-08-31 13:00:00 20.8 8 Sur 15 Sur 0 -- -- 87
2017-08-31 12:00:00 19.8 12 Sur 19 Sur 0 -- -- 90
2017-08-31 11:00:00 20.9 3 Nordeste 9 Norte 0 -- -- 86
2017-08-31 10:00:00 18.1 3 Sudeste 13 Norte 0.4 -- -- 97
2017-08-31 09:00:00 17.7 9 Norte 21 Norte 11 -- -- 95
2017-08-31 08:00:00 18.1 8 Noroeste 11 Noroeste 0.4 -- -- 91
2017-08-31 07:00:00 18 4 Norte 12 Noroeste 0 -- -- 92
2017-08-31 06:00:00 18 6 Noroeste 10 Noroeste 0 -- -- 90
2017-08-31 05:00:00 18.5 5 Noroeste 7 Noroeste 0 -- -- 88
2017-08-31 04:00:00 19.1 4 Norte 10 Noroeste 0 -- -- 82
2017-08-31 03:00:00 18.8 6 Norte 12 Noroeste 0 -- -- 83
2017-08-31 02:00:00 19.4 2 Oeste 12 Noroeste 0 -- -- 80
2017-08-31 01:00:00 19.8 3 Noroeste 8 Norte 0 -- -- 79
2017-08-31 00:00:00 20.9 0 Calma 8 Sur 0 -- -- 76
2017-08-30 23:00:00 21.4 4 Sur 12 Sur 0 -- -- 74
2017-08-30 22:00:00 22.4 4 Oeste 12 Sudoeste 0 -- -- 67
2017-08-30 21:00:00 23 8 Sudoeste 19 Sur 0 -- -- 64
2017-08-30 20:00:00 23.9 12 Sur 27 Sur 0 -- -- 60
2017-08-30 19:00:00 25 18 Sur 28 Sudoeste 0 -- -- 55
2017-08-30 18:00:00 26.4 17 Sur 36 Sur 0 -- -- 50
2017-08-30 17:00:00 27.6 17 Sur 32 Sur 0 -- -- 46
2017-08-30 16:00:00 28 21 Sur 33 Sudoeste 0 -- -- 44
2017-08-30 15:00:00 27.9 14 Sudoeste 36 Sudoeste 0 -- -- 44
2017-08-30 14:00:00 27.6 10 Sudoeste 24 Sur 0 -- -- 48
2017-08-30 13:00:00 26.8 6 Sur 13 Sur 0 -- -- 52
2017-08-30 12:00:00 23.8 6 Nordeste 12 Nordeste 0 -- -- 68
2017-08-30 11:00:00 19.8 4 Norte 11 Noroeste 0 -- -- 85
2017-08-30 10:00:00 18 4 Oeste 9 Noroeste 0 -- -- 91
2017-08-30 09:00:00 17.3 3 Norte 9 Norte 0 -- -- 96
2017-08-30 08:00:00 17.3 2 Oeste 8 Noroeste 0.2 -- -- 93
2017-08-30 07:00:00 17.4 0 Calma 8 Sur 1 -- -- 92
2017-08-30 06:00:00 17.5 7 Sudoeste 10 Oeste 0 -- -- 88
2017-08-30 05:00:00 17.2 5 Norte 12 Noroeste 0.4 -- -- 89
2017-08-30 04:00:00 18.1 3 Sudoeste 10 Sur 0 -- -- 79
2017-08-30 03:00:00 17.9 3 Oeste 10 Noroeste 0 -- -- 76
2017-08-30 02:00:00 18.6 6 Norte 9 Norte 0 -- -- 74
2017-08-30 01:00:00 21 3 Sudoeste 8 Oeste 0 -- -- 66
2017-08-30 00:00:00 22.6 4 Sudoeste 9 Sur 0 -- -- 62
2017-08-29 23:00:00 23.6 3 Sur 5 Sudoeste 0 -- -- 58
2017-08-29 22:00:00 24.1 3 Este 9 Sudoeste 0 -- -- 55
2017-08-29 21:00:00 24.6 2 Sudoeste 8 Sudoeste 0 -- -- 52
2017-08-29 20:00:00 25.7 3 Sudoeste 8 Este 0 -- -- 51
2017-08-29 19:00:00 25.9 4 Noroeste 36 Sudoeste 0 -- -- 50
2017-08-29 18:00:00 29.1 26 Sudoeste 35 Sur 0 -- -- 37
2017-08-29 17:00:00 30.5 11 Sudoeste 24 Sudoeste 0 -- -- 38
2017-08-29 16:00:00 30.9 11 Oeste 23 Noroeste 0 -- -- 40
2017-08-29 15:00:00 31.5 9 Sudoeste 33 Sudoeste 0 -- -- 39
2017-08-29 14:00:00 31.7 12 Oeste 31 Noroeste 0 -- -- 36
2017-08-29 13:00:00 30.7 10 Norte 26 Sudeste 0 -- -- 44
2017-08-29 12:00:00 28.9 7 Sudeste 14 Este 0 -- -- 51
2017-08-29 11:00:00 26.6 5 Sudeste 10 Nordeste 0 -- -- 58
2017-08-29 10:00:00 24.2 5 Este 9 Este 0 -- -- 66
2017-08-29 09:00:00 20.8 3 Este 6 Norte 0 -- -- 77
2017-08-29 08:00:00 18.5 0 Calma 9 Noroeste 0 -- -- 85
2017-08-29 07:00:00 18.2 5 Norte 8 Noroeste 0 -- -- 87
2017-08-29 06:00:00 19.2 6 Norte 9 Norte 0 -- -- 85
2017-08-29 05:00:00 20.7 0 Calma 11 Norte 0 -- -- 78
2017-08-29 04:00:00 20.5 3 Norte 8 Este 0 -- -- 79
2017-08-29 03:00:00 21.1 3 Norte 9 Noroeste 0 -- -- 78
2017-08-29 02:00:00 22.2 6 Noroeste 11 Norte 0 -- -- 76
2017-08-29 01:00:00 23.4 6 Norte 10 Noroeste 0 -- -- 70
2017-08-29 00:00:00 24 5 Noroeste 10 Norte 0 -- -- 68
2017-08-28 23:00:00 24.7 2 Norte 10 Noroeste 0 -- -- 66
2017-08-28 22:00:00 25.3 7 Noroeste 9 Norte 0 -- -- 68
2017-08-28 21:00:00 26.3 7 Oeste 14 Sudoeste 0 -- -- 66
2017-08-28 20:00:00 28.2 10 Sur 26 Sur 0 -- -- 59
2017-08-28 19:00:00 29.1 17 Sur 46 Sur 0 -- -- 55
2017-08-28 18:00:00 32.1 29 Sur 47 Sudoeste 0 -- -- 44
2017-08-28 17:00:00 36.2 23 Sur 38 Sur 0 -- -- 30
2017-08-28 16:00:00 37.2 15 Sur 29 Sudoeste 0 -- -- 26
2017-08-28 15:00:00 36.4 6 Sur 22 Sur 0 -- -- 24
2017-08-28 14:00:00 35.2 8 Sur 14 Sur 0 -- -- 26
2017-08-28 13:00:00 32.8 6 Sudeste 11 Sudeste 0 -- -- 36
2017-08-28 12:00:00 29.3 5 Sudeste 10 Sudeste 0 -- -- 49
2017-08-28 11:00:00 26.1 4 Sudeste 9 Sudeste 0 -- -- 61
2017-08-28 10:00:00 23.6 5 Sudeste 8 Sudeste 0 -- -- 62
2017-08-28 09:00:00 19.5 3 Norte 6 Norte 0 -- -- 76
2017-08-28 08:00:00 16.5 5 Norte 7 Norte 0 -- -- 87
2017-08-28 07:00:00 17.2 3 Norte 8 Norte 0 -- -- 84
2017-08-28 06:00:00 17.9 4 Norte 5 Norte 0 -- -- 85
2017-08-28 05:00:00 18.7 0 Calma 8 Noroeste 0 -- -- 83
2017-08-28 04:00:00 19.4 0 Calma 8 Noroeste 0 -- -- 79
2017-08-28 03:00:00 19.4 4 Norte 9 Noroeste 0 -- -- 78
2017-08-28 02:00:00 20.9 3 Noroeste 9 Norte 0 -- -- 75
2017-08-28 01:00:00 22 4 Norte 11 Oeste 0 -- -- 71
2017-08-28 00:00:00 23.3 3 Oeste 9 Oeste 0 -- -- 70
2017-08-27 23:00:00 24.4 0 Calma 12 Sudoeste 0 -- -- 75
2017-08-27 22:00:00 25.3 3 Norte 9 Norte 0 -- -- 72
2017-08-27 21:00:00 26.3 6 Sur 19 Sur 0 -- -- 70
2017-08-27 20:00:00 27.2 15 Sur 28 Sur 0 -- -- 68
2017-08-27 19:00:00 28.6 22 Sur 36 Sur 0 -- -- 63
2017-08-27 18:00:00 31.7 24 Sur 33 Sur 0 -- -- 52
2017-08-27 17:00:00 35.2 21 Sur 31 Sur 0 -- -- 33
2017-08-27 16:00:00 35.2 14 Sur 29 Sudeste 0 -- -- 32
2017-08-27 15:00:00 34.3 15 Sur 26 Sur 0 -- -- 39
2017-08-27 14:00:00 33.3 11 Sur 22 Sur 0 -- -- 35
2017-08-27 13:00:00 30.8 11 Sur 18 Sudeste 0 -- -- 47
2017-08-27 12:00:00 29.3 8 Sudeste 14 Sur 0 -- -- 54
2017-08-27 11:00:00 27 4 Sur 9 Sur 0 -- -- 62
2017-08-27 10:00:00 24.2 3 Sur 6 Sudeste 0 -- -- 71
2017-08-27 09:00:00 21.5 4 Este 8 Noroeste 0 -- -- 81
2017-08-27 08:00:00 19.2 6 Noroeste 8 Noroeste 0 -- -- 89
2017-08-27 07:00:00 20.1 2 Este 6 Oeste 0 -- -- 85
2017-08-27 06:00:00 20.4 4 Norte 7 Noroeste 0 -- -- 86
2017-08-27 05:00:00 20.8 3 Nordeste 12 Noroeste 0 -- -- 84
2017-08-27 04:00:00 21.6 3 Norte 10 Noroeste 0 -- -- 81
2017-08-27 03:00:00 22.2 4 Norte 9 Sur 0 -- -- 80
2017-08-27 02:00:00 23.1 5 Oeste 9 Sudoeste 0 -- -- 77
2017-08-27 01:00:00 22.6 5 Norte 13 Noroeste 0 -- -- 79
2017-08-27 00:00:00 24.1 4 Sur 12 Sur 0 -- -- 74
2017-08-26 23:00:00 24.7 8 Sur 12 Sur 0 -- -- 73
2017-08-26 22:00:00 25.6 13 Sudoeste 26 Sudoeste 0 -- -- 69
2017-08-26 21:00:00 26.9 16 Sur 28 Sur 0 -- -- 63
2017-08-26 20:00:00 29 18 Sudoeste 27 Sur 0 -- -- 57
2017-08-26 19:00:00 31.4 20 Sudoeste 30 Sudoeste 0 -- -- 47
2017-08-26 18:00:00 33.1 16 Sur 27 Sur 0 -- -- 44
2017-08-26 17:00:00 34.2 19 Sudoeste 28 Sur 0 -- -- 41
2017-08-26 16:00:00 34.1 15 Sudoeste 26 Sudoeste 0 -- -- 35
2017-08-26 15:00:00 33.7 14 Sur 27 Sur 0 -- -- 34
2017-08-26 14:00:00 33.4 14 Sur 25 Sur 0 -- -- 36
2017-08-26 13:00:00 31.9 10 Sudeste 19 Sudeste 0 -- -- 26
2017-08-26 12:00:00 29.9 7 Sudeste 14 Sudeste 0 -- -- 34
2017-08-26 11:00:00 26.7 5 Sudeste 11 Sudeste 0 -- -- 46
2017-08-26 10:00:00 23 2 Noroeste 8 Norte 0 -- -- 64
2017-08-26 09:00:00 19 4 Norte 7 Nordeste 0 -- -- 80
2017-08-26 08:00:00 17.1 3 Norte 10 Noroeste 0 -- -- 92
2017-08-26 07:00:00 17 5 Norte 8 Noroeste 0 -- -- 91
2017-08-26 06:00:00 18.2 6 Oeste 9 Noroeste 0 -- -- 88
2017-08-26 05:00:00 18.7 5 Noroeste 8 Noroeste 0 -- -- 86
2017-08-26 04:00:00 19.3 3 Sudeste 10 Oeste 0 -- -- 83
2017-08-26 03:00:00 19.9 2 Norte 12 Noroeste 0 -- -- 81
2017-08-26 02:00:00 21 6 Noroeste 11 Norte 0 -- -- 79
2017-08-26 01:00:00 22.3 4 Norte 18 Sur 0 -- -- 78
2017-08-26 00:00:00 23.5 9 Oeste 13 Oeste 0 -- -- 70